Time;durP1;ratioP1;P1;durP2;ratioP2;P2;SDS_P1;SDS_P2;PMS_P1;PMS_P2;Temp;Humidity;BMP_temperature;BMP_pressure;BME280_temperature;BME280_humidity;BME280_pressure;Samples;Min_cycle;Max_cycle;Signal;HPM_P1;HPM_P2
2024/01/23 00:00:21;;;;;;;19.17;12.63;;;5.80;99.90;;;;;;5001542;28;20502;-77
2024/01/23 00:02:50;;;;;;;18.23;13.13;;;5.80;99.90;;;;;;4971533;28;20237;-76
2024/01/23 00:05:19;;;;;;;19.87;12.80;;;5.90;99.90;;;;;;4985486;28;20321;-76
2024/01/23 00:07:50;;;;;;;21.83;12.80;;;5.90;99.90;;;;;;4985636;28;20229;-76
2024/01/23 00:10:19;;;;;;;18.90;13.60;;;5.90;99.70;;;;;;5002614;28;20304;-76
2024/01/23 00:12:48;;;;;;;19.00;12.40;;;6.00;99.90;;;;;;4972880;28;20297;-76
2024/01/23 00:15:18;;;;;;;21.37;13.93;;;5.90;99.40;;;;;;4985946;28;20242;-77
2024/01/23 00:17:47;;;;;;;22.13;14.07;;;6.00;99.40;;;;;;4991325;28;20250;-76
2024/01/23 00:20:16;;;;;;;20.10;13.87;;;5.90;99.10;;;;;;4990845;28;20452;-77
2024/01/23 00:22:45;;;;;;;19.83;13.33;;;5.90;99.20;;;;;;5004808;28;20656;-77
2024/01/23 00:25:16;;;;;;;21.17;14.43;;;5.90;99.20;;;;;;4980765;28;20249;-77
2024/01/23 00:27:46;;;;;;;22.23;13.67;;;6.00;99.90;;;;;;4970683;28;20714;-76
2024/01/23 00:30:16;;;;;;;20.67;13.50;;;5.90;98.70;;;;;;4988223;28;20222;-76
2024/01/23 00:32:45;;;;;;;18.90;12.80;;;6.00;98.60;;;;;;5002522;28;20277;-76
2024/01/23 00:35:14;;;;;;;22.43;13.83;;;6.00;98.20;;;;;;5002460;28;20308;-76
2024/01/23 00:37:43;;;;;;;20.10;13.17;;;6.00;97.70;;;;;;5006235;28;20244;-77
2024/01/23 00:40:12;;;;;;;20.60;13.17;;;5.90;97.50;;;;;;4988085;28;20303;-76
2024/01/23 00:42:45;;;;;;;20.53;13.43;;;6.00;97.20;;;;;;4965957;28;20223;-77
2024/01/23 00:45:15;;;;;;;20.83;13.17;;;6.00;96.50;;;;;;4987913;28;20237;-76
2024/01/23 00:47:43;;;;;;;21.23;13.97;;;6.00;96.90;;;;;;4964449;28;20227;-75
2024/01/23 00:50:13;;;;;;;19.67;12.90;;;6.00;96.70;;;;;;4987218;28;20233;-72
2024/01/23 00:52:42;;;;;;;19.53;12.30;;;6.10;96.70;;;;;;4965950;28;20314;-73
2024/01/23 00:55:11;;;;;;;19.00;13.07;;;6.10;96.00;;;;;;4971363;28;20238;-72
2024/01/23 00:57:40;;;;;;;20.07;13.23;;;6.10;96.00;;;;;;4987478;28;20219;-72
2024/01/23 01:00:12;;;;;;;22.53;13.17;;;6.20;95.50;;;;;;5004934;28;20226;-73
2024/01/23 01:02:41;;;;;;;18.93;12.47;;;6.20;95.70;;;;;;4983545;28;20218;-73
2024/01/23 01:05:10;;;;;;;19.80;12.63;;;6.10;95.60;;;;;;5010530;28;20420;-72
2024/01/23 01:07:39;;;;;;;17.53;12.97;;;6.20;95.00;;;;;;4994144;28;20276;-72
2024/01/23 01:10:08;;;;;;;21.03;13.37;;;6.20;94.90;;;;;;4973277;28;20232;-73
2024/01/23 01:12:37;;;;;;;20.10;12.63;;;6.20;94.60;;;;;;5001678;28;20960;-72
2024/01/23 01:15:07;;;;;;;20.03;13.23;;;6.20;94.50;;;;;;4969687;28;20275;-73
2024/01/23 01:17:40;;;;;;;21.00;12.47;;;6.20;94.80;;;;;;4966736;28;20224;-73
2024/01/23 01:20:12;;;;;;;19.57;13.47;;;6.20;95.00;;;;;;5011431;28;20218;-73
2024/01/23 01:22:41;;;;;;;20.30;12.63;;;6.20;94.50;;;;;;4985341;28;20229;-73
2024/01/23 01:25:11;;;;;;;20.87;12.63;;;6.20;94.80;;;;;;4983460;28;20309;-72
2024/01/23 01:27:40;;;;;;;16.97;12.37;;;6.20;93.80;;;;;;4953624;28;20290;-72
2024/01/23 01:30:10;;;;;;;20.63;12.70;;;6.20;94.40;;;;;;4984920;28;20678;-71
2024/01/23 01:32:41;;;;;;;17.83;12.60;;;6.30;93.90;;;;;;5002719;28;20235;-71
2024/01/23 01:35:10;;;;;;;22.53;12.50;;;6.30;93.70;;;;;;4986145;28;20230;-70
2024/01/23 01:37:39;;;;;;;17.97;12.07;;;6.20;93.60;;;;;;4985792;28;20229;-71
2024/01/23 01:40:09;;;;;;;20.67;12.03;;;6.20;93.30;;;;;;4971049;28;20689;-70
2024/01/23 01:42:38;;;;;;;17.77;12.20;;;6.20;93.20;;;;;;4999551;28;20299;-71
2024/01/23 01:45:08;;;;;;;22.33;12.80;;;6.20;92.90;;;;;;5004967;28;20435;-71
2024/01/23 01:47:37;;;;;;;17.33;12.10;;;6.30;93.00;;;;;;5000695;28;20652;-72
2024/01/23 01:50:08;;;;;;;19.53;12.50;;;6.30;93.20;;;;;;5004669;28;20237;-70
2024/01/23 01:52:39;;;;;;;17.43;11.80;;;6.30;92.90;;;;;;4973270;28;20259;-72
2024/01/23 01:55:09;;;;;;;19.23;12.30;;;6.30;93.40;;;;;;4997873;28;20222;-71
2024/01/23 01:57:38;;;;;;;17.53;11.43;;;6.30;92.60;;;;;;4973174;28;20252;-72
2024/01/23 02:00:09;;;;;;;16.67;11.00;;;6.40;93.00;;;;;;4971736;28;20245;-71
2024/01/23 02:02:43;;;;;;;19.97;11.37;;;6.30;92.60;;;;;;4972755;28;20692;-72
2024/01/23 02:05:17;;;;;;;16.87;10.97;;;6.30;92.30;;;;;;4971813;28;20313;-71
2024/01/23 02:07:47;;;;;;;15.77;10.57;;;6.40;92.40;;;;;;5008518;28;20241;-72
2024/01/23 02:10:17;;;;;;;18.27;10.97;;;6.30;91.60;;;;;;4973625;28;20307;-71
2024/01/23 02:12:46;;;;;;;19.53;11.67;;;6.30;91.40;;;;;;4971285;28;20224;-71
2024/01/23 02:15:14;;;;;;;18.43;11.80;;;6.20;92.20;;;;;;4989094;28;20215;-73
2024/01/23 02:17:43;;;;;;;18.90;11.57;;;6.20;92.20;;;;;;4989412;28;20254;-73
2024/01/23 02:20:15;;;;;;;18.00;12.23;;;6.20;92.10;;;;;;5006916;28;20226;-77
2024/01/23 02:22:44;;;;;;;21.53;12.13;;;6.20;92.00;;;;;;4987688;28;20222;-77
2024/01/23 02:25:14;;;;;;;21.17;11.90;;;6.20;91.50;;;;;;4972384;28;20241;-77
2024/01/23 02:27:43;;;;;;;20.13;12.27;;;6.20;92.20;;;;;;4988813;28;20232;-77
2024/01/23 02:30:13;;;;;;;18.17;11.33;;;6.10;91.50;;;;;;4989618;28;20241;-78
2024/01/23 02:32:44;;;;;;;23.37;12.63;;;6.10;91.60;;;;;;4990038;28;20224;-78
2024/01/23 02:35:14;;;;;;;19.93;12.03;;;6.10;91.60;;;;;;4993133;28;20358;-77
2024/01/23 02:37:42;;;;;;;22.20;11.73;;;6.10;91.90;;;;;;4989721;28;20743;-78
2024/01/23 02:40:14;;;;;;;19.33;11.63;;;6.10;91.70;;;;;;4988005;28;20229;-78
2024/01/23 02:42:43;;;;;;;22.07;12.23;;;6.10;90.60;;;;;;4990259;28;20230;-77
2024/01/23 02:45:12;;;;;;;17.77;11.30;;;6.20;90.30;;;;;;4976120;28;20298;-77
2024/01/23 02:47:41;;;;;;;18.97;11.73;;;6.20;90.10;;;;;;4987039;28;20246;-77
2024/01/23 02:50:13;;;;;;;19.60;12.07;;;6.20;96.30;;;;;;4958368;28;20286;-77
2024/01/23 02:52:41;;;;;;;20.33;11.83;;;6.20;90.30;;;;;;4972136;28;20581;-77
2024/01/23 02:55:10;;;;;;;17.70;11.07;;;6.20;90.40;;;;;;4987946;28;20668;-77
2024/01/23 02:57:40;;;;;;;20.73;11.07;;;6.20;90.00;;;;;;4991227;28;20226;-77
2024/01/23 03:00:10;;;;;;;19.40;11.27;;;6.20;90.10;;;;;;4994157;28;20231;-76
2024/01/23 03:02:38;;;;;;;18.07;11.50;;;6.20;91.00;;;;;;4972136;28;20284;-77
2024/01/23 03:05:08;;;;;;;18.83;12.07;;;6.20;89.40;;;;;;4971777;28;20250;-77
2024/01/23 03:07:36;;;;;;;16.53;10.80;;;6.20;96.00;;;;;;5004811;28;20725;-77
2024/01/23 03:10:07;;;;;;;20.30;11.20;;;6.20;89.40;;;;;;4983943;28;20241;-76
2024/01/23 03:12:36;;;;;;;17.13;10.67;;;6.20;90.00;;;;;;4986777;28;20222;-76
2024/01/23 03:15:07;;;;;;;18.20;10.57;;;6.20;89.10;;;;;;4992508;28;20921;-79
2024/01/23 03:17:37;;;;;;;19.53;11.07;;;6.20;89.20;;;;;;4992766;28;20311;-78
2024/01/23 03:20:06;;;;;;;17.23;10.60;;;6.10;89.90;;;;;;4991665;28;20237;-76
2024/01/23 03:22:36;;;;;;;17.23;9.90;;;6.20;89.30;;;;;;4985896;28;20269;-75
2024/01/23 03:25:05;;;;;;;17.83;9.93;;;6.30;88.80;;;;;;4972140;28;20230;-75
2024/01/23 03:27:34;;;;;;;17.63;9.60;;;6.30;88.90;;;;;;4987001;28;20230;-75
2024/01/23 03:30:05;;;;;;;19.37;10.07;;;6.30;89.10;;;;;;4988613;28;20374;-70
2024/01/23 03:32:34;;;;;;;15.37;9.57;;;6.30;88.80;;;;;;4951743;28;20603;-70
2024/01/23 03:35:03;;;;;;;20.43;10.20;;;6.30;88.80;;;;;;4984593;28;20682;-72
2024/01/23 03:37:32;;;;;;;14.93;9.37;;;6.40;89.50;;;;;;4989654;28;20324;-73
2024/01/23 03:40:01;;;;;;;14.07;9.40;;;6.30;88.90;;;;;;4983346;28;20254;-73
2024/01/23 03:42:29;;;;;;;15.10;9.40;;;6.30;89.50;;;;;;4988440;28;20397;-73
2024/01/23 03:44:58;;;;;;;16.47;9.37;;;6.30;88.70;;;;;;4978504;28;20298;-73
2024/01/23 03:47:29;;;;;;;14.77;9.23;;;6.20;88.90;;;;;;4966384;28;20226;-73
2024/01/23 03:49:59;;;;;;;16.47;9.80;;;6.20;88.80;;;;;;4981322;28;20259;-71
2024/01/23 03:52:29;;;;;;;13.93;8.60;;;6.20;88.60;;;;;;4995263;28;20226;-71
2024/01/23 03:54:58;;;;;;;15.87;9.97;;;6.10;88.70;;;;;;5000722;28;20224;-71
2024/01/23 03:57:28;;;;;;;16.43;8.87;;;6.20;89.10;;;;;;5005108;28;20814;-72
2024/01/23 03:59:57;;;;;;;14.57;8.97;;;6.20;88.50;;;;;;4971307;28;20680;-72
2024/01/23 04:02:27;;;;;;;18.13;8.93;;;6.10;88.70;;;;;;4973955;28;20234;-71
2024/01/23 04:04:58;;;;;;;16.50;8.47;;;6.10;88.50;;;;;;5001059;28;20226;-72
2024/01/23 04:07:28;;;;;;;15.20;8.80;;;6.10;88.60;;;;;;4968152;28;20724;-73
2024/01/23 04:09:57;;;;;;;17.27;8.73;;;6.00;88.80;;;;;;5002196;28;20244;-71
2024/01/23 04:12:25;;;;;;;16.87;9.23;;;6.10;88.80;;;;;;4970863;28;20258;-72
2024/01/23 04:14:54;;;;;;;17.07;9.17;;;6.00;88.50;;;;;;4967341;28;20226;-71
2024/01/23 04:17:23;;;;;;;18.93;9.63;;;6.00;88.50;;;;;;4966912;28;20234;-71
2024/01/23 04:19:52;;;;;;;14.87;9.23;;;5.90;88.50;;;;;;4970508;28;20226;-71
2024/01/23 04:22:22;;;;;;;14.50;8.97;;;5.90;88.60;;;;;;4986433;28;20225;-72
2024/01/23 04:24:51;;;;;;;17.60;9.40;;;5.90;88.40;;;;;;4971546;28;20231;-72
2024/01/23 04:27:21;;;;;;;18.00;9.43;;;5.80;88.60;;;;;;4965001;28;20490;-71
2024/01/23 04:29:50;;;;;;;16.33;9.07;;;5.80;88.80;;;;;;4964983;28;20302;-71
2024/01/23 04:32:20;;;;;;;20.60;9.67;;;5.80;88.40;;;;;;4970578;28;20728;-71
2024/01/23 04:34:49;;;;;;;17.43;9.50;;;5.80;88.60;;;;;;4975757;28;20285;-72
2024/01/23 04:37:17;;;;;;;16.30;9.23;;;5.70;88.80;;;;;;4954466;28;20300;-71
2024/01/23 04:39:49;;;;;;;16.70;9.17;;;5.80;89.00;;;;;;4970188;28;20919;-75
2024/01/23 04:42:17;;;;;;;18.33;9.37;;;5.70;88.10;;;;;;4956517;28;20236;-74
2024/01/23 04:44:46;;;;;;;16.77;8.80;;;5.80;88.40;;;;;;4966923;28;20238;-75
2024/01/23 04:47:15;;;;;;;17.60;8.80;;;5.80;88.40;;;;;;4964908;28;20350;-77
2024/01/23 04:49:44;;;;;;;16.33;9.23;;;5.80;88.90;;;;;;4983260;28;20226;-76
2024/01/23 04:52:13;;;;;;;17.40;9.53;;;5.80;88.50;;;;;;4967410;28;20305;-77
2024/01/23 04:54:42;;;;;;;15.87;8.90;;;5.70;88.50;;;;;;4959584;28;20733;-76
2024/01/23 04:57:14;;;;;;;14.47;9.20;;;5.80;89.20;;;;;;4980001;28;20234;-77
2024/01/23 04:59:43;;;;;;;16.97;9.13;;;5.70;89.40;;;;;;4961179;28;20279;-78
2024/01/23 05:02:12;;;;;;;15.67;9.70;;;5.70;88.50;;;;;;4951032;28;20641;-78
2024/01/23 05:04:40;;;;;;;18.47;10.20;;;5.60;88.30;;;;;;4961548;28;20290;-77
2024/01/23 05:07:09;;;;;;;19.20;10.07;;;5.60;88.20;;;;;;4959576;28;20334;-77
2024/01/23 05:09:38;;;;;;;17.87;9.90;;;5.60;88.40;;;;;;4956236;28;20234;-77
2024/01/23 05:12:08;;;;;;;16.53;9.53;;;5.70;88.80;;;;;;4962812;28;20232;-78
2024/01/23 05:14:39;;;;;;;17.03;10.13;;;5.60;88.40;;;;;;4979325;28;20238;-78
2024/01/23 05:17:07;;;;;;;18.77;10.27;;;5.60;88.40;;;;;;4950688;28;20306;-75
2024/01/23 05:19:37;;;;;;;19.07;10.17;;;5.60;88.60;;;;;;4966162;28;20219;-77
2024/01/23 05:22:06;;;;;;;18.50;10.27;;;5.60;88.90;;;;;;4967797;28;20238;-77
2024/01/23 05:24:34;;;;;;;19.73;10.47;;;5.70;88.70;;;;;;4973791;28;20320;-77
2024/01/23 05:27:04;;;;;;;22.00;10.83;;;5.60;88.40;;;;;;4984259;28;20248;-77
2024/01/23 05:29:33;;;;;;;21.13;11.20;;;5.60;89.00;;;;;;4989033;28;20221;-77
2024/01/23 05:32:03;;;;;;;19.33;11.10;;;5.60;88.10;;;;;;4983631;28;20385;-77
2024/01/23 05:34:34;;;;;;;20.73;10.77;;;5.60;89.00;;;;;;4971585;28;20331;-77
2024/01/23 05:37:03;;;;;;;24.87;11.70;;;5.60;88.00;;;;;;4983563;28;20268;-76
2024/01/23 05:39:37;;;;;;;19.17;11.00;;;5.60;88.50;;;;;;4999076;28;20234;-77
2024/01/23 05:42:07;;;;;;;17.37;10.90;;;5.60;87.90;;;;;;4985392;28;20226;-77
2024/01/23 05:44:36;;;;;;;18.90;11.10;;;5.60;87.70;;;;;;4983752;28;20717;-77
2024/01/23 05:47:07;;;;;;;19.07;11.20;;;5.60;88.00;;;;;;4988718;28;20384;-77
2024/01/23 05:49:35;;;;;;;18.90;11.43;;;5.60;87.10;;;;;;4967852;28;20238;-76
2024/01/23 05:52:05;;;;;;;19.70;11.83;;;5.50;87.90;;;;;;4990699;28;20218;-73
2024/01/23 05:54:34;;;;;;;26.70;12.60;;;5.30;88.20;;;;;;4984707;28;20323;-72
2024/01/23 05:57:03;;;;;;;19.47;11.93;;;5.40;88.20;;;;;;4965309;28;20229;-72
2024/01/23 05:59:32;;;;;;;24.40;12.17;;;5.40;88.20;;;;;;4983634;28;20230;-73
2024/01/23 06:02:04;;;;;;;23.03;12.53;;;5.40;88.10;;;;;;4967772;28;21135;-71
2024/01/23 06:04:34;;;;;;;22.13;11.97;;;5.50;88.20;;;;;;4971218;28;20233;-73
2024/01/23 06:07:06;;;;;;;22.53;13.30;;;5.40;89.40;;;;;;4969831;28;20230;-72
2024/01/23 06:09:35;;;;;;;22.23;13.33;;;5.40;88.00;;;;;;4987252;28;20321;-72
2024/01/23 06:12:05;;;;;;;23.20;12.20;;;5.40;88.20;;;;;;4946802;28;20234;-73
2024/01/23 06:14:34;;;;;;;23.30;12.97;;;5.40;87.70;;;;;;4968293;28;20225;-74
2024/01/23 06:17:03;;;;;;;21.73;13.50;;;5.40;88.20;;;;;;4971930;28;20289;-73
2024/01/23 06:19:34;;;;;;;25.00;12.47;;;5.40;87.30;;;;;;4970765;28;20240;-72
2024/01/23 06:22:05;;;;;;;20.07;12.77;;;5.50;87.40;;;;;;5003022;28;20230;-72
2024/01/23 06:24:34;;;;;;;21.50;13.27;;;5.40;87.40;;;;;;4984293;28;20824;-73
2024/01/23 06:27:05;;;;;;;19.10;12.30;;;5.30;87.40;;;;;;4970990;28;20310;-72
2024/01/23 06:29:36;;;;;;;18.40;12.67;;;5.40;87.10;;;;;;4968054;28;20366;-73
2024/01/23 06:32:06;;;;;;;22.50;13.17;;;5.40;86.70;;;;;;5004810;28;20226;-73
2024/01/23 06:34:36;;;;;;;24.83;13.20;;;5.40;88.00;;;;;;4971216;28;20310;-73
2024/01/23 06:37:04;;;;;;;21.77;12.50;;;5.40;85.50;;;;;;4984105;28;20667;-72
2024/01/23 06:39:33;;;;;;;19.80;12.27;;;5.30;86.70;;;;;;4960953;28;20876;-72
2024/01/23 06:42:02;;;;;;;22.37;12.87;;;5.30;87.40;;;;;;5012451;28;20232;-72
2024/01/23 06:44:31;;;;;;;24.40;13.50;;;5.30;87.40;;;;;;4991193;28;20683;-73
2024/01/23 06:47:00;;;;;;;22.47;14.03;;;5.30;88.00;;;;;;4985363;28;20227;-74
2024/01/23 06:49:29;;;;;;;21.27;13.43;;;5.30;87.80;;;;;;4970733;28;20222;-73
2024/01/23 06:51:59;;;;;;;45.53;31.93;;;5.30;86.10;;;;;;4986099;28;20226;-72
2024/01/23 06:54:27;;;;;;;22.07;12.93;;;5.30;86.00;;;;;;4984370;28;20222;-71
2024/01/23 06:56:56;;;;;;;22.30;12.70;;;5.40;85.80;;;;;;4998476;28;20998;-70
2024/01/23 06:59:25;;;;;;;21.03;12.67;;;5.30;84.70;;;;;;4977773;28;20236;-71
2024/01/23 07:01:53;;;;;;;20.77;12.43;;;5.30;85.50;;;;;;4988213;28;20233;-78
2024/01/23 07:04:23;;;;;;;20.63;12.83;;;5.30;85.20;;;;;;5004871;28;20282;-76
2024/01/23 07:06:52;;;;;;;21.47;11.83;;;5.40;84.90;;;;;;4968471;28;20218;-79
2024/01/23 07:09:23;;;;;;;22.67;12.37;;;5.40;84.40;;;;;;4983931;28;20224;-72
2024/01/23 07:11:53;;;;;;;100.60;71.17;;;5.40;84.00;;;;;;4981747;28;20380;-73
2024/01/23 07:14:22;;;;;;;44.63;23.47;;;5.40;93.20;;;;;;4980900;28;20242;-72
2024/01/23 07:16:50;;;;;;;38.80;16.97;;;5.40;84.50;;;;;;4980474;28;20218;-72
2024/01/23 07:19:19;;;;;;;21.37;13.00;;;5.40;84.60;;;;;;4986469;28;20258;-72
2024/01/23 07:21:49;;;;;;;21.00;11.97;;;5.40;83.20;;;;;;4985792;28;20296;-72
2024/01/23 07:24:18;;;;;;;19.53;11.80;;;5.40;82.90;;;;;;4970516;28;20281;-71
2024/01/23 07:26:49;;;;;;;21.97;12.63;;;5.50;82.80;;;;;;4985390;28;20225;-72
2024/01/23 07:29:18;;;;;;;37.80;21.73;;;5.40;83.10;;;;;;4984667;28;20226;-73
2024/01/23 07:31:46;;;;;;;28.03;15.27;;;5.50;83.30;;;;;;4968589;28;20257;-72
2024/01/23 07:34:15;;;;;;;25.67;15.13;;;5.50;83.00;;;;;;4973724;28;20243;-72
2024/01/23 07:36:45;;;;;;;20.33;13.57;;;5.60;82.00;;;;;;4984497;28;20398;-72
2024/01/23 07:39:14;;;;;;;24.33;12.73;;;5.60;82.50;;;;;;4969850;28;20226;-71
2024/01/23 07:41:44;;;;;;;19.73;11.40;;;5.70;82.60;;;;;;4981497;28;20448;-71
2024/01/23 07:44:14;;;;;;;17.83;11.17;;;5.80;81.60;;;;;;4978374;28;20499;-72
2024/01/23 07:46:43;;;;;;;20.67;11.80;;;6.00;80.70;;;;;;4966474;28;20601;-72
2024/01/23 07:49:11;;;;;;;21.90;11.83;;;6.00;80.20;;;;;;4982217;28;20237;-72
2024/01/23 07:51:47;;;;;;;17.53;11.40;;;6.10;79.20;;;;;;4967267;28;20605;-72
2024/01/23 07:54:16;;;;;;;20.13;11.53;;;6.10;80.10;;;;;;4984450;28;20823;-72
2024/01/23 07:56:45;;;;;;;19.67;10.37;;;6.20;79.60;;;;;;4980465;28;20348;-72
2024/01/23 07:59:16;;;;;;;16.67;10.53;;;6.30;78.50;;;;;;4997714;28;20223;-71
2024/01/23 08:01:45;;;;;;;19.30;11.53;;;6.30;78.50;;;;;;4999571;28;20226;-71
2024/01/23 08:04:14;;;;;;;31.90;18.67;;;6.40;77.90;;;;;;4969837;28;20233;-71
2024/01/23 08:06:43;;;;;;;17.50;10.00;;;6.40;77.10;;;;;;4953372;28;20258;-72
2024/01/23 08:09:13;;;;;;;17.27;10.23;;;6.30;77.60;;;;;;4985619;28;20300;-72
2024/01/23 08:11:42;;;;;;;15.57;9.70;;;6.40;77.00;;;;;;4981874;28;20227;-71
2024/01/23 08:14:11;;;;;;;15.10;9.97;;;6.40;78.20;;;;;;4983762;28;20316;-71
2024/01/23 08:16:44;;;;;;;18.47;10.17;;;6.50;77.70;;;;;;5005272;28;20230;-71
2024/01/23 08:19:12;;;;;;;14.97;10.07;;;6.60;77.30;;;;;;5008844;28;20736;-72
2024/01/23 08:21:41;;;;;;;18.30;10.93;;;6.60;76.60;;;;;;4995430;28;20232;-72
2024/01/23 08:24:10;;;;;;;14.80;9.00;;;6.60;78.30;;;;;;4993035;28;20246;-71
2024/01/23 08:26:38;;;;;;;16.13;8.53;;;6.70;76.50;;;;;;4968191;28;20226;-72
2024/01/23 08:29:08;;;;;;;14.20;8.43;;;6.60;76.10;;;;;;4992795;28;20265;-72
2024/01/23 08:31:37;;;;;;;14.00;8.73;;;6.70;76.10;;;;;;4964517;28;20313;-70
2024/01/23 08:34:07;;;;;;;16.63;8.80;;;6.70;76.80;;;;;;4966856;28;20709;-72
2024/01/23 08:36:36;;;;;;;20.27;9.20;;;6.70;75.70;;;;;;4975127;28;20303;-72
2024/01/23 08:39:05;;;;;;;17.63;9.00;;;6.70;76.80;;;;;;4989196;28;20297;-72
2024/01/23 08:41:33;;;;;;;18.67;8.47;;;6.70;76.40;;;;;;4983717;28;20229;-72
2024/01/23 08:44:02;;;;;;;14.70;8.60;;;6.90;75.50;;;;;;4987176;28;20246;-72
2024/01/23 08:46:30;;;;;;;18.77;9.00;;;6.90;74.20;;;;;;4972476;28;20256;-71
2024/01/23 08:48:59;;;;;;;18.00;9.10;;;6.90;75.20;;;;;;4988089;28;20229;-72
2024/01/23 08:51:30;;;;;;;12.57;7.47;;;6.90;73.90;;;;;;5005983;28;20254;-72
2024/01/23 08:54:01;;;;;;;15.07;8.57;;;6.90;74.40;;;;;;4980064;28;20283;-71
2024/01/23 08:56:31;;;;;;;16.83;8.40;;;7.00;73.60;;;;;;4980168;28;20224;-71
2024/01/23 08:59:00;;;;;;;17.77;8.83;;;7.10;74.00;;;;;;4982444;28;20252;-72
2024/01/23 09:01:29;;;;;;;15.87;7.93;;;7.10;73.30;;;;;;4983545;28;20214;-72
2024/01/23 09:03:57;;;;;;;13.70;8.07;;;7.00;73.60;;;;;;4978160;28;20226;-72
2024/01/23 09:06:26;;;;;;;14.30;8.73;;;7.10;74.40;;;;;;4966366;28;21007;-72
2024/01/23 09:08:57;;;;;;;16.60;8.17;;;7.00;74.50;;;;;;4983683;28;22982;-71
2024/01/23 09:11:25;;;;;;;16.47;8.57;;;7.20;74.10;;;;;;4980168;28;20243;-72
2024/01/23 09:14:00;;;;;;;13.97;8.70;;;7.20;73.40;;;;;;4999548;28;20230;-72
2024/01/23 09:16:31;;;;;;;15.77;8.53;;;7.20;73.40;;;;;;4986627;28;20815;-72
2024/01/23 09:19:00;;;;;;;19.90;9.13;;;7.40;72.10;;;;;;4986940;28;20229;-72
2024/01/23 09:21:29;;;;;;;12.97;8.63;;;7.40;71.70;;;;;;4968441;28;20225;-73
2024/01/23 09:24:00;;;;;;;15.70;8.13;;;7.50;71.40;;;;;;4972173;28;20233;-72
2024/01/23 09:26:30;;;;;;;20.80;9.30;;;7.50;72.40;;;;;;4958816;28;20239;-71
2024/01/23 09:28:58;;;;;;;16.00;8.87;;;7.60;71.00;;;;;;4984306;28;20230;-72
2024/01/23 09:31:27;;;;;;;20.20;9.60;;;7.50;70.90;;;;;;4969216;28;20696;-71
2024/01/23 09:33:57;;;;;;;16.07;8.17;;;7.40;71.90;;;;;;4977417;28;20240;-72
2024/01/23 09:36:27;;;;;;;16.47;8.30;;;7.50;71.80;;;;;;4977270;28;20233;-71
2024/01/23 09:38:55;;;;;;;12.60;8.00;;;7.60;72.40;;;;;;4983133;28;20234;-72
2024/01/23 09:41:26;;;;;;;16.38;8.48;;;7.50;72.20;;;;;;4973241;28;20231;-72
2024/01/23 09:43:55;;;;;;;20.67;8.45;;;7.70;71.80;;;;;;4980874;28;20272;-71
2024/01/23 09:46:25;;;;;;;15.37;8.10;;;7.70;71.30;;;;;;4982695;28;20231;-72
2024/01/23 09:48:53;;;;;;;17.50;8.83;;;7.80;69.90;;;;;;4982450;28;20229;-72
2024/01/23 09:51:24;;;;;;;18.27;7.90;;;7.70;71.40;;;;;;4980195;28;20320;-72
2024/01/23 09:53:52;;;;;;;17.52;8.60;;;7.70;70.50;;;;;;4974601;28;20226;-71
2024/01/23 09:56:22;;;;;;;17.90;8.40;;;7.70;72.50;;;;;;4969852;28;20252;-71
2024/01/23 09:58:52;;;;;;;13.95;8.02;;;7.70;72.10;;;;;;4968999;28;20263;-72
2024/01/23 10:01:22;;;;;;;16.83;8.30;;;7.70;71.50;;;;;;4970133;28;20223;-72
2024/01/23 10:03:56;;;;;;;15.10;7.93;;;7.70;71.30;;;;;;4980589;28;20217;-70
2024/01/23 10:06:24;;;;;;;17.83;8.43;;;7.70;71.20;;;;;;4983779;28;20226;-69
2024/01/23 10:08:55;;;;;;;17.20;8.40;;;7.60;71.80;;;;;;4966302;28;20230;-70
2024/01/23 10:11:24;;;;;;;23.88;8.10;;;7.70;84.90;;;;;;4968008;28;20332;-71
2024/01/23 10:13:56;;;;;;;13.82;8.25;;;7.70;72.10;;;;;;4981147;28;20344;-70
2024/01/23 10:16:26;;;;;;;43.58;28.45;;;7.80;70.70;;;;;;4970747;28;20265;-71
2024/01/23 10:18:55;;;;;;;40.42;21.92;;;7.90;71.20;;;;;;4989254;28;20779;-70
2024/01/23 10:21:25;;;;;;;18.17;9.10;;;7.80;70.50;;;;;;4990717;28;20911;-71
2024/01/23 10:23:54;;;;;;;16.98;9.07;;;7.80;70.50;;;;;;4986762;28;20226;-72
2024/01/23 10:26:24;;;;;;;16.20;8.48;;;7.80;70.20;;;;;;4991851;28;20222;-71
2024/01/23 10:28:54;;;;;;;20.25;8.18;;;7.80;70.20;;;;;;5005172;28;20254;-71
2024/01/23 10:31:23;;;;;;;18.10;8.50;;;7.80;71.10;;;;;;4959898;28;20740;-73
2024/01/23 10:33:54;;;;;;;17.92;8.25;;;7.90;70.90;;;;;;4986674;28;20238;-73
2024/01/23 10:36:23;;;;;;;16.38;8.48;;;8.00;71.60;;;;;;4983619;28;20222;-74
2024/01/23 10:38:55;;;;;;;18.33;8.27;;;7.90;69.50;;;;;;4991322;28;20280;-74
2024/01/23 10:41:26;;;;;;;17.50;8.40;;;7.80;72.20;;;;;;4974335;28;20285;-73
2024/01/23 10:43:59;;;;;;;17.92;8.45;;;7.90;71.00;;;;;;5012211;28;20221;-72
2024/01/23 10:46:29;;;;;;;17.85;8.50;;;7.90;70.80;;;;;;4990029;28;20717;-74
2024/01/23 10:48:58;;;;;;;19.55;8.52;;;7.80;71.20;;;;;;4978575;28;20243;-73
2024/01/23 10:51:31;;;;;;;16.73;8.05;;;7.70;70.70;;;;;;4982063;28;21010;-72
2024/01/23 10:54:08;;;;;;;14.88;8.82;;;7.70;71.00;;;;;;4975940;28;20234;-73
2024/01/23 10:56:45;;;;;;;19.58;9.18;;;7.80;71.40;;;;;;4968626;28;20771;-73
2024/01/23 10:59:19;;;;;;;13.75;7.50;;;7.70;71.90;;;;;;4983207;28;20264;-74
2024/01/23 11:01:54;;;;;;;15.75;8.55;;;7.70;71.30;;;;;;5000538;28;20308;-73
2024/01/23 11:04:23;;;;;;;16.70;8.52;;;7.60;72.30;;;;;;4976695;28;20581;-76
2024/01/23 11:06:58;;;;;;;18.20;8.90;;;7.80;71.60;;;;;;4989380;28;20219;-73
2024/01/23 11:09:33;;;;;;;17.67;8.60;;;7.60;71.90;;;;;;4998379;28;20233;-73
2024/01/23 11:12:11;;;;;;;20.98;8.57;;;7.60;72.70;;;;;;4979728;28;20937;-72
2024/01/23 11:14:47;;;;;;;20.83;9.83;;;7.60;71.70;;;;;;4982279;28;20218;-73
2024/01/23 11:17:17;;;;;;;20.97;9.90;;;7.60;72.90;;;;;;4979366;28;20230;-73
2024/01/23 11:19:47;;;;;;;20.85;8.88;;;7.60;73.20;;;;;;4981961;28;20222;-73
2024/01/23 11:22:22;;;;;;;21.13;9.25;;;7.50;72.40;;;;;;4984646;28;20383;-73
2024/01/23 11:24:50;;;;;;;25.17;9.40;;;7.50;85.40;;;;;;4967265;28;20232;-74
2024/01/23 11:27:20;;;;;;;20.05;9.32;;;7.60;72.10;;;;;;5004276;28;20742;-73
2024/01/23 11:29:52;;;;;;;20.38;9.55;;;7.50;72.50;;;;;;4967793;28;20222;-73
2024/01/23 11:32:24;;;;;;;20.40;9.05;;;7.50;75.80;;;;;;4986348;28;20221;-74
2024/01/23 11:35:02;;;;;;;18.83;10.00;;;7.60;72.60;;;;;;5006102;28;20225;-73
2024/01/23 11:37:45;;;;;;;18.65;9.50;;;7.50;72.80;;;;;;4989657;28;20312;-73
2024/01/23 11:40:35;;;;;;;21.10;9.30;;;7.50;71.70;;;;;;5003249;28;20218;-72
2024/01/23 11:43:10;;;;;;;15.90;8.80;;;7.40;73.00;;;;;;4983962;28;20307;-71
2024/01/23 11:45:41;;;;;;;17.48;9.55;;;7.50;71.90;;;;;;4982575;28;20796;-71
2024/01/23 11:48:11;;;;;;;18.17;9.18;;;7.40;72.70;;;;;;4981305;28;20230;-72
2024/01/23 11:50:41;;;;;;;17.67;8.40;;;7.40;72.80;;;;;;5003976;28;20222;-71
2024/01/23 11:53:12;;;;;;;18.67;9.35;;;7.40;72.60;;;;;;4989834;28;20634;-71
2024/01/23 11:55:41;;;;;;;19.10;8.80;;;7.40;72.80;;;;;;4969383;28;20708;-71
2024/01/23 11:58:11;;;;;;;17.10;8.80;;;7.50;73.20;;;;;;4985837;28;20234;-72
2024/01/23 12:00:42;;;;;;;15.95;9.05;;;7.50;73.30;;;;;;4968888;28;20222;-71
2024/01/23 12:03:20;;;;;;;18.13;9.45;;;7.50;73.30;;;;;;4990476;28;20325;-71
2024/01/23 12:05:52;;;;;;;16.52;9.43;;;7.50;72.60;;;;;;5006391;28;20222;-71
2024/01/23 12:08:21;;;;;;;17.48;9.38;;;7.50;72.60;;;;;;4970388;28;20222;-71
2024/01/23 12:10:51;;;;;;;18.33;9.13;;;7.40;73.30;;;;;;4988615;28;20229;-70
2024/01/23 12:13:22;;;;;;;16.55;8.55;;;7.50;72.70;;;;;;4984183;28;20939;-71
2024/01/23 12:15:53;;;;;;;18.70;9.40;;;7.50;72.80;;;;;;4997537;28;20813;-71
2024/01/23 12:18:22;;;;;;;25.33;14.98;;;7.40;72.00;;;;;;4973618;28;20222;-71
2024/01/23 12:20:54;;;;;;;21.17;7.93;;;7.40;73.40;;;;;;4990983;28;20304;-71
2024/01/23 12:23:23;;;;;;;19.95;7.85;;;7.40;72.40;;;;;;4981882;28;20227;-71
2024/01/23 12:25:55;;;;;;;18.80;8.57;;;7.40;73.70;;;;;;4980271;28;20237;-71
2024/01/23 12:28:24;;;;;;;16.93;7.73;;;7.40;73.50;;;;;;4987528;28;20231;-71
2024/01/23 12:30:54;;;;;;;18.90;7.97;;;7.40;73.20;;;;;;5004750;28;20229;-71
2024/01/23 12:33:26;;;;;;;18.47;7.90;;;7.50;73.00;;;;;;5001274;28;20233;-71
2024/01/23 12:35:55;;;;;;;17.70;7.65;;;7.60;72.60;;;;;;4984577;28;20218;-71
2024/01/23 12:38:24;;;;;;;18.47;10.00;;;7.60;72.50;;;;;;4978589;28;20292;-70
2024/01/23 12:40:53;;;;;;;20.55;10.85;;;7.60;72.00;;;;;;4965872;28;20232;-71
2024/01/23 12:43:23;;;;;;;18.02;8.10;;;7.70;71.40;;;;;;4981666;28;20226;-70
2024/01/23 12:45:56;;;;;;;19.17;8.60;;;7.50;71.30;;;;;;4988478;28;20222;-70
2024/01/23 12:48:24;;;;;;;16.75;9.68;;;7.60;72.80;;;;;;4990209;28;20226;-72
2024/01/23 12:50:56;;;;;;;16.45;7.47;;;7.60;71.30;;;;;;4978320;28;20602;-74
2024/01/23 12:53:26;;;;;;;18.02;7.63;;;7.50;72.20;;;;;;4988274;28;20236;-74